Iron Mountain, Michigan
Current Conditions -  °F | °C
As of 3:54 PM on Tuesday 21 Oct 2014 (Local Time) from KIMT Reporting Station
Clear Clear  
Wind Chill: 51°   Ceiling: Unl
Heat Index: 51°   Visibility: 10mi
Dew Point: 29°   Wind: 6mph
Humidity: 43%   Direction: 10°N
Pressure: 30.22"   Gusts: NA
Location:  45.82°N, 88.06°W
Report Text: KIMT 212054Z AUTO 01005KT 10SM CLR 11/M02 A3022 RMK AO2 SLP242 T01061017 57003
Loading
Personal Weather Stations






























Interactive Weather Map
Tropical Storm Tracking
New forecast layout! Learn more

10-Day Weather Forecast

Advertisements
Track Severe Weather on mobile